Yuanjiang, China
Current Conditions -  °F | °C
As of 2:00 PM on Thursday 23 Oct 2014 (Local Time) from ZPPP Reporting Station
Scattered Clouds Scattered Clouds  
Wind Chill: 66°   Ceiling: Unl
Heat Index: 66°   Visibility: 6mi
Dew Point: 45°   Wind: 9mph
Humidity: 46%   Direction: 250°WSW
Pressure: 30.27"   Gusts: NA
Location:  23.6°N, 101.98°E
Report Text: ZPPP 230600Z 25004MPS 220V290 9999 SCT026 19/07 Q1025 NOSIG
Loading
Personal Weather Stations






























Interactive Weather Map
Tropical Storm Tracking
New forecast layout! Learn more

10-Day Weather Forecast

Advertisements
Track Severe Weather on mobile